sensor_id;sensor_type;location;lat;lon;timestamp;temperature;humidity
2030;DHT22;1020;48.854;8.830;2022-10-16T00:01:36;14.40;99.90
2030;DHT22;1020;48.854;8.830;2022-10-16T00:04:03;14.50;99.90
2030;DHT22;1020;48.854;8.830;2022-10-16T00:06:30;14.50;99.90
2030;DHT22;1020;48.854;8.830;2022-10-16T00:08:57;14.50;99.90
2030;DHT22;1020;48.854;8.830;2022-10-16T00:11:26;14.50;99.90
2030;DHT22;1020;48.854;8.830;2022-10-16T00:13:58;14.50;99.90
2030;DHT22;1020;48.854;8.830;2022-10-16T00:16:26;14.40;99.90
2030;DHT22;1020;48.854;8.830;2022-10-16T00:18:54;14.40;99.90
2030;DHT22;1020;48.854;8.830;2022-10-16T00:21:23;14.40;99.90
2030;DHT22;1020;48.854;8.830;2022-10-16T00:23:50;14.40;99.90
2030;DHT22;1020;48.854;8.830;2022-10-16T00:26:18;14.50;99.90
2030;DHT22;1020;48.854;8.830;2022-10-16T00:28:46;14.60;99.90
2030;DHT22;1020;48.854;8.830;2022-10-16T00:31:15;14.50;99.90
2030;DHT22;1020;48.854;8.830;2022-10-16T00:33:42;14.60;99.90
2030;DHT22;1020;48.854;8.830;2022-10-16T00:36:11;14.50;99.90
2030;DHT22;1020;48.854;8.830;2022-10-16T00:38:38;14.50;99.90
2030;DHT22;1020;48.854;8.830;2022-10-16T00:41:05;14.50;99.90
2030;DHT22;1020;48.854;8.830;2022-10-16T00:43:35;14.50;99.90
2030;DHT22;1020;48.854;8.830;2022-10-16T00:46:04;14.60;99.90
2030;DHT22;1020;48.854;8.830;2022-10-16T00:48:33;14.60;99.90
2030;DHT22;1020;48.854;8.830;2022-10-16T00:50:59;14.70;99.90
2030;DHT22;1020;48.854;8.830;2022-10-16T00:53:27;14.70;99.90
2030;DHT22;1020;48.854;8.830;2022-10-16T00:55:54;14.70;99.90
2030;DHT22;1020;48.854;8.830;2022-10-16T00:58:21;14.80;99.90
2030;DHT22;1020;48.854;8.830;2022-10-16T01:00:48;14.80;99.90
2030;DHT22;1020;48.854;8.830;2022-10-16T01:03:27;14.80;99.90
2030;DHT22;1020;48.854;8.830;2022-10-16T01:06:06;14.80;99.90
2030;DHT22;1020;48.854;8.830;2022-10-16T01:08:43;14.80;99.90
2030;DHT22;1020;48.854;8.830;2022-10-16T01:11:19;14.80;99.90
2030;DHT22;1020;48.854;8.830;2022-10-16T01:13:54;14.80;99.90
2030;DHT22;1020;48.854;8.830;2022-10-16T01:16:28;14.80;99.90
2030;DHT22;1020;48.854;8.830;2022-10-16T01:19:02;14.80;99.90
2030;DHT22;1020;48.854;8.830;2022-10-16T01:21:36;14.90;99.90
2030;DHT22;1020;48.854;8.830;2022-10-16T01:24:12;14.90;99.90
2030;DHT22;1020;48.854;8.830;2022-10-16T01:29:26;14.90;99.90
2030;DHT22;1020;48.854;8.830;2022-10-16T01:32:00;14.90;99.90
2030;DHT22;1020;48.854;8.830;2022-10-16T01:34:31;15.00;99.90
2030;DHT22;1020;48.854;8.830;2022-10-16T01:37:03;15.00;99.90
2030;DHT22;1020;48.854;8.830;2022-10-16T01:39:35;15.00;99.90
2030;DHT22;1020;48.854;8.830;2022-10-16T01:42:06;15.00;99.90
2030;DHT22;1020;48.854;8.830;2022-10-16T01:44:37;15.00;99.90
2030;DHT22;1020;48.854;8.830;2022-10-16T01:47:06;15.10;99.90
2030;DHT22;1020;48.854;8.830;2022-10-16T01:49:37;15.10;99.90
2030;DHT22;1020;48.854;8.830;2022-10-16T01:52:06;15.10;99.90
2030;DHT22;1020;48.854;8.830;2022-10-16T01:54:36;15.10;99.90
2030;DHT22;1020;48.854;8.830;2022-10-16T01:57:04;15.00;99.90
2030;DHT22;1020;48.854;8.830;2022-10-16T01:59:35;15.00;99.90
2030;DHT22;1020;48.854;8.830;2022-10-16T02:02:08;15.10;99.90
2030;DHT22;1020;48.854;8.830;2022-10-16T02:04:39;15.10;99.90
2030;DHT22;1020;48.854;8.830;2022-10-16T02:07:08;15.00;99.90
2030;DHT22;1020;48.854;8.830;2022-10-16T02:09:36;15.00;99.90
2030;DHT22;1020;48.854;8.830;2022-10-16T02:12:08;15.00;99.90
2030;DHT22;1020;48.854;8.830;2022-10-16T02:14:38;15.00;99.90
2030;DHT22;1020;48.854;8.830;2022-10-16T02:17:12;15.10;99.90
2030;DHT22;1020;48.854;8.830;2022-10-16T02:19:39;15.00;99.90
2030;DHT22;1020;48.854;8.830;2022-10-16T02:22:09;15.10;99.90
2030;DHT22;1020;48.854;8.830;2022-10-16T02:24:39;15.00;99.90
2030;DHT22;1020;48.854;8.830;2022-10-16T02:27:11;15.10;99.90
2030;DHT22;1020;48.854;8.830;2022-10-16T02:29:42;15.10;99.90
2030;DHT22;1020;48.854;8.830;2022-10-16T02:32:16;15.20;99.90
2030;DHT22;1020;48.854;8.830;2022-10-16T02:34:47;15.20;99.90
2030;DHT22;1020;48.854;8.830;2022-10-16T02:37:16;15.30;99.90
2030;DHT22;1020;48.854;8.830;2022-10-16T02:39:44;15.30;99.90
2030;DHT22;1020;48.854;8.830;2022-10-16T02:42:12;15.30;99.90
2030;DHT22;1020;48.854;8.830;2022-10-16T02:44:39;15.30;99.90
2030;DHT22;1020;48.854;8.830;2022-10-16T02:47:05;15.30;99.90
2030;DHT22;1020;48.854;8.830;2022-10-16T02:49:34;15.30;99.90
2030;DHT22;1020;48.854;8.830;2022-10-16T02:52:01;15.30;99.90
2030;DHT22;1020;48.854;8.830;2022-10-16T02:54:27;15.30;99.90
2030;DHT22;1020;48.854;8.830;2022-10-16T02:56:54;15.30;99.90
2030;DHT22;1020;48.854;8.830;2022-10-16T02:59:21;15.30;99.90
2030;DHT22;1020;48.854;8.830;2022-10-16T03:01:48;15.30;99.90
2030;DHT22;1020;48.854;8.830;2022-10-16T03:04:14;15.30;99.90
2030;DHT22;1020;48.854;8.830;2022-10-16T03:06:42;15.20;99.90
2030;DHT22;1020;48.854;8.830;2022-10-16T03:09:09;15.20;99.90
2030;DHT22;1020;48.854;8.830;2022-10-16T03:11:36;15.10;99.90
2030;DHT22;1020;48.854;8.830;2022-10-16T03:14:03;15.10;99.90
2030;DHT22;1020;48.854;8.830;2022-10-16T03:16:29;15.00;99.90
2030;DHT22;1020;48.854;8.830;2022-10-16T03:18:56;15.00;99.90
2030;DHT22;1020;48.854;8.830;2022-10-16T03:21:23;15.00;99.90
2030;DHT22;1020;48.854;8.830;2022-10-16T03:23:51;15.00;99.90
2030;DHT22;1020;48.854;8.830;2022-10-16T03:26:18;15.00;99.90
2030;DHT22;1020;48.854;8.830;2022-10-16T03:28:45;15.00;99.90
2030;DHT22;1020;48.854;8.830;2022-10-16T03:31:12;15.00;99.90
2030;DHT22;1020;48.854;8.830;2022-10-16T03:33:38;14.90;99.90
2030;DHT22;1020;48.854;8.830;2022-10-16T03:36:05;14.90;99.90
2030;DHT22;1020;48.854;8.830;2022-10-16T03:38:33;14.90;99.90
2030;DHT22;1020;48.854;8.830;2022-10-16T03:41:01;14.90;99.90
2030;DHT22;1020;48.854;8.830;2022-10-16T03:43:28;14.90;99.90
2030;DHT22;1020;48.854;8.830;2022-10-16T03:45:55;14.90;99.90
2030;DHT22;1020;48.854;8.830;2022-10-16T03:48:22;14.90;99.90
2030;DHT22;1020;48.854;8.830;2022-10-16T03:50:49;14.90;99.90
2030;DHT22;1020;48.854;8.830;2022-10-16T03:53:17;14.90;99.90
2030;DHT22;1020;48.854;8.830;2022-10-16T03:55:44;14.90;99.90
2030;DHT22;1020;48.854;8.830;2022-10-16T03:58:12;14.90;99.90
2030;DHT22;1020;48.854;8.830;2022-10-16T04:00:40;14.90;99.90
2030;DHT22;1020;48.854;8.830;2022-10-16T04:03:07;16.70;99.90
2030;DHT22;1020;48.854;8.830;2022-10-16T04:05:34;14.90;99.90
2030;DHT22;1020;48.854;8.830;2022-10-16T04:08:01;14.90;99.90
2030;DHT22;1020;48.854;8.830;2022-10-16T04:10:28;15.00;99.90
2030;DHT22;1020;48.854;8.830;2022-10-16T04:12:54;15.00;99.90
2030;DHT22;1020;48.854;8.830;2022-10-16T04:15:23;15.00;99.90
2030;DHT22;1020;48.854;8.830;2022-10-16T04:17:51;15.00;99.90
2030;DHT22;1020;48.854;8.830;2022-10-16T04:20:18;15.10;99.90
2030;DHT22;1020;48.854;8.830;2022-10-16T04:22:45;15.10;99.90
2030;DHT22;1020;48.854;8.830;2022-10-16T04:25:11;15.10;99.90
2030;DHT22;1020;48.854;8.830;2022-10-16T04:27:39;15.10;99.90
2030;DHT22;1020;48.854;8.830;2022-10-16T04:30:06;15.10;99.90
2030;DHT22;1020;48.854;8.830;2022-10-16T04:32:35;15.10;99.90
2030;DHT22;1020;48.854;8.830;2022-10-16T04:35:02;15.00;99.90
2030;DHT22;1020;48.854;8.830;2022-10-16T04:37:29;15.00;99.90
2030;DHT22;1020;48.854;8.830;2022-10-16T04:39:56;14.90;99.90
2030;DHT22;1020;48.854;8.830;2022-10-16T04:42:23;14.80;99.90
2030;DHT22;1020;48.854;8.830;2022-10-16T04:44:49;14.80;99.90
2030;DHT22;1020;48.854;8.830;2022-10-16T04:47:16;14.70;99.90
2030;DHT22;1020;48.854;8.830;2022-10-16T04:49:44;14.70;99.90
2030;DHT22;1020;48.854;8.830;2022-10-16T04:52:11;14.70;99.90
2030;DHT22;1020;48.854;8.830;2022-10-16T04:54:38;14.70;99.90
2030;DHT22;1020;48.854;8.830;2022-10-16T04:57:07;14.60;99.90
2030;DHT22;1020;48.854;8.830;2022-10-16T04:59:34;14.50;99.90
2030;DHT22;1020;48.854;8.830;2022-10-16T05:02:01;14.50;99.90
2030;DHT22;1020;48.854;8.830;2022-10-16T05:04:28;14.50;99.90
2030;DHT22;1020;48.854;8.830;2022-10-16T05:06:56;14.50;99.90
2030;DHT22;1020;48.854;8.830;2022-10-16T05:09:23;17.00;99.90
2030;DHT22;1020;48.854;8.830;2022-10-16T05:11:49;14.50;99.90
2030;DHT22;1020;48.854;8.830;2022-10-16T05:14:16;14.50;99.90
2030;DHT22;1020;48.854;8.830;2022-10-16T05:16:43;14.50;99.90
2030;DHT22;1020;48.854;8.830;2022-10-16T05:19:10;14.50;99.90
2030;DHT22;1020;48.854;8.830;2022-10-16T05:21:37;14.60;99.90
2030;DHT22;1020;48.854;8.830;2022-10-16T05:24:05;14.60;99.90
2030;DHT22;1020;48.854;8.830;2022-10-16T05:26:32;14.60;99.90
2030;DHT22;1020;48.854;8.830;2022-10-16T05:28:58;14.70;99.90
2030;DHT22;1020;48.854;8.830;2022-10-16T05:31:25;14.70;99.90
2030;DHT22;1020;48.854;8.830;2022-10-16T05:33:52;14.70;99.90
2030;DHT22;1020;48.854;8.830;2022-10-16T05:36:24;14.70;99.90
2030;DHT22;1020;48.854;8.830;2022-10-16T05:38:51;14.70;99.90
2030;DHT22;1020;48.854;8.830;2022-10-16T05:41:19;14.80;99.90
2030;DHT22;1020;48.854;8.830;2022-10-16T05:43:47;14.80;99.90
2030;DHT22;1020;48.854;8.830;2022-10-16T05:46:15;14.80;99.90
2030;DHT22;1020;48.854;8.830;2022-10-16T05:48:41;14.80;99.90
2030;DHT22;1020;48.854;8.830;2022-10-16T05:51:12;14.80;99.90
2030;DHT22;1020;48.854;8.830;2022-10-16T05:53:40;14.80;99.90
2030;DHT22;1020;48.854;8.830;2022-10-16T05:56:10;14.80;99.90
2030;DHT22;1020;48.854;8.830;2022-10-16T05:58:38;14.90;99.90
2030;DHT22;1020;48.854;8.830;2022-10-16T06:01:07;14.90;99.90
2030;DHT22;1020;48.854;8.830;2022-10-16T06:03:36;14.90;99.90
2030;DHT22;1020;48.854;8.830;2022-10-16T06:06:08;14.90;99.90
2030;DHT22;1020;48.854;8.830;2022-10-16T06:08:35;14.90;99.90
2030;DHT22;1020;48.854;8.830;2022-10-16T06:11:02;15.00;99.90
2030;DHT22;1020;48.854;8.830;2022-10-16T06:13:29;15.00;99.90
2030;DHT22;1020;48.854;8.830;2022-10-16T06:15:59;15.00;99.90
2030;DHT22;1020;48.854;8.830;2022-10-16T06:18:26;15.20;99.90
2030;DHT22;1020;48.854;8.830;2022-10-16T06:20:53;15.20;99.90
2030;DHT22;1020;48.854;8.830;2022-10-16T06:23:19;15.10;99.90
2030;DHT22;1020;48.854;8.830;2022-10-16T06:25:46;15.10;99.90
2030;DHT22;1020;48.854;8.830;2022-10-16T06:28:14;15.10;99.90
2030;DHT22;1020;48.854;8.830;2022-10-16T06:30:41;15.10;99.90
2030;DHT22;1020;48.854;8.830;2022-10-16T06:33:10;15.10;99.90
2030;DHT22;1020;48.854;8.830;2022-10-16T06:35:37;15.10;99.90
2030;DHT22;1020;48.854;8.830;2022-10-16T06:40:32;15.10;99.90
2030;DHT22;1020;48.854;8.830;2022-10-16T06:42:59;15.00;99.90
2030;DHT22;1020;48.854;8.830;2022-10-16T06:45:26;15.00;99.90
2030;DHT22;1020;48.854;8.830;2022-10-16T06:47:52;15.00;99.90
2030;DHT22;1020;48.854;8.830;2022-10-16T06:50:20;15.00;99.90
2030;DHT22;1020;48.854;8.830;2022-10-16T06:52:47;15.00;99.90
2030;DHT22;1020;48.854;8.830;2022-10-16T06:55:14;15.20;99.90
2030;DHT22;1020;48.854;8.830;2022-10-16T06:57:42;15.20;99.90
2030;DHT22;1020;48.854;8.830;2022-10-16T07:00:09;15.10;99.90
2030;DHT22;1020;48.854;8.830;2022-10-16T07:02:36;15.20;99.90
2030;DHT22;1020;48.854;8.830;2022-10-16T07:05:04;15.30;99.90
2030;DHT22;1020;48.854;8.830;2022-10-16T07:07:32;15.20;99.90
2030;DHT22;1020;48.854;8.830;2022-10-16T07:09:58;15.20;99.90
2030;DHT22;1020;48.854;8.830;2022-10-16T07:12:25;15.20;99.90
2030;DHT22;1020;48.854;8.830;2022-10-16T07:14:52;15.20;99.90
2030;DHT22;1020;48.854;8.830;2022-10-16T07:17:20;15.20;99.90
2030;DHT22;1020;48.854;8.830;2022-10-16T07:19:47;15.10;99.90
2030;DHT22;1020;48.854;8.830;2022-10-16T07:22:13;15.20;99.90
2030;DHT22;1020;48.854;8.830;2022-10-16T07:24:42;15.20;99.90
2030;DHT22;1020;48.854;8.830;2022-10-16T07:27:09;15.20;99.90
2030;DHT22;1020;48.854;8.830;2022-10-16T07:29:36;15.20;99.90
2030;DHT22;1020;48.854;8.830;2022-10-16T07:32:03;15.20;99.90
2030;DHT22;1020;48.854;8.830;2022-10-16T07:34:30;15.30;99.90
2030;DHT22;1020;48.854;8.830;2022-10-16T07:36:57;15.40;99.90
2030;DHT22;1020;48.854;8.830;2022-10-16T07:39:23;15.50;99.90
2030;DHT22;1020;48.854;8.830;2022-10-16T07:41:51;15.60;99.90
2030;DHT22;1020;48.854;8.830;2022-10-16T07:44:18;15.70;99.90
2030;DHT22;1020;48.854;8.830;2022-10-16T07:46:45;15.80;99.90
2030;DHT22;1020;48.854;8.830;2022-10-16T07:49:12;15.90;99.90
2030;DHT22;1020;48.854;8.830;2022-10-16T07:51:38;16.10;99.90
2030;DHT22;1020;48.854;8.830;2022-10-16T07:54:05;16.30;99.90
2030;DHT22;1020;48.854;8.830;2022-10-16T07:56:32;16.50;99.90
2030;DHT22;1020;48.854;8.830;2022-10-16T07:59:00;16.90;99.90
2030;DHT22;1020;48.854;8.830;2022-10-16T08:01:27;16.90;99.90
2030;DHT22;1020;48.854;8.830;2022-10-16T08:03:54;17.10;90.70
2030;DHT22;1020;48.854;8.830;2022-10-16T08:06:21;17.30;99.90
2030;DHT22;1020;48.854;8.830;2022-10-16T08:08:48;18.00;79.90
2030;DHT22;1020;48.854;8.830;2022-10-16T08:11:15;18.60;1.00
2030;DHT22;1020;48.854;8.830;2022-10-16T08:13:42;18.40;1.00
2030;DHT22;1020;48.854;8.830;2022-10-16T08:16:11;18.00;1.00
2030;DHT22;1020;48.854;8.830;2022-10-16T08:18:39;17.70;10.20
2030;DHT22;1020;48.854;8.830;2022-10-16T08:21:08;17.60;34.60
2030;DHT22;1020;48.854;8.830;2022-10-16T08:23:38;17.40;66.80
2030;DHT22;1020;48.854;8.830;2022-10-16T08:26:07;17.30;71.50
2030;DHT22;1020;48.854;8.830;2022-10-16T08:28:35;17.40;67.80
2030;DHT22;1020;48.854;8.830;2022-10-16T08:31:06;17.40;93.10
2030;DHT22;1020;48.854;8.830;2022-10-16T08:33:35;17.40;80.70
2030;DHT22;1020;48.854;8.830;2022-10-16T08:36:03;17.40;80.20
2030;DHT22;1020;48.854;8.830;2022-10-16T08:38:29;17.50;83.80
2030;DHT22;1020;48.854;8.830;2022-10-16T08:41:08;17.70;82.40
2030;DHT22;1020;48.854;8.830;2022-10-16T08:43:49;17.60;54.30
2030;DHT22;1020;48.854;8.830;2022-10-16T08:46:27;17.70;61.00
2030;DHT22;1020;48.854;8.830;2022-10-16T08:49:02;17.70;37.90
2030;DHT22;1020;48.854;8.830;2022-10-16T08:51:32;17.80;34.30
2030;DHT22;1020;48.854;8.830;2022-10-16T08:54:02;17.80;37.20
2030;DHT22;1020;48.854;8.830;2022-10-16T08:56:30;17.90;25.30
2030;DHT22;1020;48.854;8.830;2022-10-16T08:58:58;17.90;1.00
2030;DHT22;1020;48.854;8.830;2022-10-16T09:01:35;17.90;8.60
2030;DHT22;1020;48.854;8.830;2022-10-16T09:06:58;18.20;1.00
2030;DHT22;1020;48.854;8.830;2022-10-16T09:09:43;18.60;1.00
2030;DHT22;1020;48.854;8.830;2022-10-16T09:12:20;18.70;1.00
2030;DHT22;1020;48.854;8.830;2022-10-16T09:14:58;19.00;1.00
2030;DHT22;1020;48.854;8.830;2022-10-16T09:17:37;19.00;1.00
2030;DHT22;1020;48.854;8.830;2022-10-16T09:20:18;19.20;1.00
2030;DHT22;1020;48.854;8.830;2022-10-16T09:22:47;19.00;1.00
2030;DHT22;1020;48.854;8.830;2022-10-16T09:25:15;19.30;1.00
2030;DHT22;1020;48.854;8.830;2022-10-16T09:27:45;19.40;1.00
2030;DHT22;1020;48.854;8.830;2022-10-16T09:30:15;19.40;1.00
2030;DHT22;1020;48.854;8.830;2022-10-16T09:32:43;19.40;1.00
2030;DHT22;1020;48.854;8.830;2022-10-16T09:35:16;19.70;1.00
2030;DHT22;1020;48.854;8.830;2022-10-16T09:37:49;19.80;1.00
2030;DHT22;1020;48.854;8.830;2022-10-16T09:40:25;19.90;1.00
2030;DHT22;1020;48.854;8.830;2022-10-16T09:42:56;20.20;99.90
2030;DHT22;1020;48.854;8.830;2022-10-16T09:45:24;20.30;99.90
2030;DHT22;1020;48.854;8.830;2022-10-16T09:47:51;20.50;81.70
2030;DHT22;1020;48.854;8.830;2022-10-16T09:50:23;20.60;1.00
2030;DHT22;1020;48.854;8.830;2022-10-16T09:53:03;20.80;1.00
2030;DHT22;1020;48.854;8.830;2022-10-16T09:55:30;20.40;99.90
2030;DHT22;1020;48.854;8.830;2022-10-16T09:57:57;20.50;99.90
2030;DHT22;1020;48.854;8.830;2022-10-16T10:00:24;21.00;1.00
2030;DHT22;1020;48.854;8.830;2022-10-16T10:02:52;20.90;29.90
2030;DHT22;1020;48.854;8.830;2022-10-16T10:05:21;20.70;99.90
2030;DHT22;1020;48.854;8.830;2022-10-16T10:07:56;20.60;99.90
2030;DHT22;1020;48.854;8.830;2022-10-16T10:10:25;20.50;99.90
2030;DHT22;1020;48.854;8.830;2022-10-16T10:12:52;20.70;99.90
2030;DHT22;1020;48.854;8.830;2022-10-16T10:15:19;20.70;1.00
2030;DHT22;1020;48.854;8.830;2022-10-16T10:17:49;20.60;99.90
2030;DHT22;1020;48.854;8.830;2022-10-16T10:20:23;20.70;1.00
2030;DHT22;1020;48.854;8.830;2022-10-16T10:22:50;20.70;99.90
2030;DHT22;1020;48.854;8.830;2022-10-16T10:25:42;20.80;1.00
2030;DHT22;1020;48.854;8.830;2022-10-16T10:28:27;20.90;99.90
2030;DHT22;1020;48.854;8.830;2022-10-16T10:31:03;21.10;1.00
2030;DHT22;1020;48.854;8.830;2022-10-16T10:33:38;21.30;99.90
2030;DHT22;1020;48.854;8.830;2022-10-16T10:36:15;21.70;1.00
2030;DHT22;1020;48.854;8.830;2022-10-16T10:38:48;22.20;1.00
2030;DHT22;1020;48.854;8.830;2022-10-16T10:41:51;23.10;99.90
2030;DHT22;1020;48.854;8.830;2022-10-16T10:44:27;24.10;99.90
2030;DHT22;1020;48.854;8.830;2022-10-16T10:47:00;25.00;8.10
2030;DHT22;1020;48.854;8.830;2022-10-16T10:49:42;25.90;1.00
2030;DHT22;1020;48.854;8.830;2022-10-16T10:52:28;27.20;1.00
2030;DHT22;1020;48.854;8.830;2022-10-16T10:55:05;27.30;1.00
2030;DHT22;1020;48.854;8.830;2022-10-16T10:57:40;27.90;1.00
2030;DHT22;1020;48.854;8.830;2022-10-16T11:00:20;28.70;1.00
2030;DHT22;1020;48.854;8.830;2022-10-16T11:02:55;29.00;1.00
2030;DHT22;1020;48.854;8.830;2022-10-16T11:05:36;29.40;1.00
2030;DHT22;1020;48.854;8.830;2022-10-16T11:08:10;28.60;99.90
2030;DHT22;1020;48.854;8.830;2022-10-16T11:10:45;28.50;1.00
2030;DHT22;1020;48.854;8.830;2022-10-16T11:13:27;28.60;99.90
2030;DHT22;1020;48.854;8.830;2022-10-16T11:15:58;28.40;1.00
2030;DHT22;1020;48.854;8.830;2022-10-16T11:18:32;27.40;1.00
2030;DHT22;1020;48.854;8.830;2022-10-16T11:21:04;26.80;1.00
2030;DHT22;1020;48.854;8.830;2022-10-16T11:23:35;26.50;1.00
2030;DHT22;1020;48.854;8.830;2022-10-16T11:26:11;26.40;1.00
2030;DHT22;1020;48.854;8.830;2022-10-16T11:28:45;26.70;1.00
2030;DHT22;1020;48.854;8.830;2022-10-16T11:31:17;27.30;1.00
2030;DHT22;1020;48.854;8.830;2022-10-16T11:33:49;27.80;1.00
2030;DHT22;1020;48.854;8.830;2022-10-16T11:36:23;27.80;1.00
2030;DHT22;1020;48.854;8.830;2022-10-16T11:38:55;28.10;1.00
2030;DHT22;1020;48.854;8.830;2022-10-16T11:41:28;28.20;1.00
2030;DHT22;1020;48.854;8.830;2022-10-16T11:47:09;28.70;1.00
2030;DHT22;1020;48.854;8.830;2022-10-16T11:49:40;29.20;1.00
2030;DHT22;1020;48.854;8.830;2022-10-16T11:52:12;29.30;99.90
2030;DHT22;1020;48.854;8.830;2022-10-16T11:54:47;29.00;99.90
2030;DHT22;1020;48.854;8.830;2022-10-16T11:57:19;28.90;99.90
2030;DHT22;1020;48.854;8.830;2022-10-16T11:59:51;28.80;1.00
2030;DHT22;1020;48.854;8.830;2022-10-16T12:02:33;28.90;99.90
2030;DHT22;1020;48.854;8.830;2022-10-16T12:05:11;29.10;99.90
2030;DHT22;1020;48.854;8.830;2022-10-16T12:07:46;28.80;99.90
2030;DHT22;1020;48.854;8.830;2022-10-16T12:10:21;28.90;99.90
2030;DHT22;1020;48.854;8.830;2022-10-16T12:12:48;28.60;99.90
2030;DHT22;1020;48.854;8.830;2022-10-16T12:15:23;28.10;99.90
2030;DHT22;1020;48.854;8.830;2022-10-16T12:17:51;28.10;99.90
2030;DHT22;1020;48.854;8.830;2022-10-16T12:20:28;28.40;1.00
2030;DHT22;1020;48.854;8.830;2022-10-16T12:22:59;28.40;99.90
2030;DHT22;1020;48.854;8.830;2022-10-16T12:25:29;28.30;1.00
2030;DHT22;1020;48.854;8.830;2022-10-16T12:28:01;28.00;1.00
2030;DHT22;1020;48.854;8.830;2022-10-16T12:30:32;27.90;1.00
2030;DHT22;1020;48.854;8.830;2022-10-16T12:33:01;28.00;1.00
2030;DHT22;1020;48.854;8.830;2022-10-16T12:35:30;27.80;1.00
2030;DHT22;1020;48.854;8.830;2022-10-16T12:38:07;27.50;1.00
2030;DHT22;1020;48.854;8.830;2022-10-16T12:40:36;27.20;1.00
2030;DHT22;1020;48.854;8.830;2022-10-16T12:43:25;27.00;1.00
2030;DHT22;1020;48.854;8.830;2022-10-16T12:46:06;27.00;1.00
2030;DHT22;1020;48.854;8.830;2022-10-16T12:48:47;27.30;1.00
2030;DHT22;1020;48.854;8.830;2022-10-16T12:51:24;27.50;1.00
2030;DHT22;1020;48.854;8.830;2022-10-16T12:54:01;27.50;1.00
2030;DHT22;1020;48.854;8.830;2022-10-16T12:56:37;27.70;1.00
2030;DHT22;1020;48.854;8.830;2022-10-16T12:59:12;27.40;99.90
2030;DHT22;1020;48.854;8.830;2022-10-16T13:01:56;27.50;1.00
2030;DHT22;1020;48.854;8.830;2022-10-16T13:04:58;27.20;1.00
2030;DHT22;1020;48.854;8.830;2022-10-16T13:07:41;27.30;1.00
2030;DHT22;1020;48.854;8.830;2022-10-16T13:10:17;27.40;1.00
2030;DHT22;1020;48.854;8.830;2022-10-16T13:13:17;27.70;1.00
2030;DHT22;1020;48.854;8.830;2022-10-16T13:16:01;27.80;1.00
2030;DHT22;1020;48.854;8.830;2022-10-16T13:18:43;27.90;1.00
2030;DHT22;1020;48.854;8.830;2022-10-16T13:21:21;28.00;1.00
2030;DHT22;1020;48.854;8.830;2022-10-16T13:23:58;28.00;1.00
2030;DHT22;1020;48.854;8.830;2022-10-16T13:26:34;27.90;1.00
2030;DHT22;1020;48.854;8.830;2022-10-16T13:29:04;27.70;1.00
2030;DHT22;1020;48.854;8.830;2022-10-16T13:31:32;27.50;1.00
2030;DHT22;1020;48.854;8.830;2022-10-16T13:34:01;27.70;1.00
2030;DHT22;1020;48.854;8.830;2022-10-16T13:36:30;28.00;1.00
2030;DHT22;1020;48.854;8.830;2022-10-16T13:39:10;28.60;1.00
2030;DHT22;1020;48.854;8.830;2022-10-16T13:41:37;28.70;1.00
2030;DHT22;1020;48.854;8.830;2022-10-16T13:44:07;28.60;1.00
2030;DHT22;1020;48.854;8.830;2022-10-16T13:46:35;28.50;1.00
2030;DHT22;1020;48.854;8.830;2022-10-16T13:49:04;28.30;1.00
2030;DHT22;1020;48.854;8.830;2022-10-16T13:51:32;27.60;1.00
2030;DHT22;1020;48.854;8.830;2022-10-16T13:53:59;27.40;1.00
2030;DHT22;1020;48.854;8.830;2022-10-16T13:56:28;27.00;1.00
2030;DHT22;1020;48.854;8.830;2022-10-16T13:58:59;26.90;1.00
2030;DHT22;1020;48.854;8.830;2022-10-16T14:01:28;26.60;1.00
2030;DHT22;1020;48.854;8.830;2022-10-16T14:04:03;26.60;1.00
2030;DHT22;1020;48.854;8.830;2022-10-16T14:06:31;26.50;1.00
2030;DHT22;1020;48.854;8.830;2022-10-16T14:09:02;26.00;1.00
2030;DHT22;1020;48.854;8.830;2022-10-16T14:11:31;25.70;1.00
2030;DHT22;1020;48.854;8.830;2022-10-16T14:14:00;25.50;1.00
2030;DHT22;1020;48.854;8.830;2022-10-16T14:16:30;25.30;18.20
2030;DHT22;1020;48.854;8.830;2022-10-16T14:18:59;24.90;90.00
2030;DHT22;1020;48.854;8.830;2022-10-16T14:21:28;24.90;99.90
2030;DHT22;1020;48.854;8.830;2022-10-16T14:23:56;24.70;99.90
2030;DHT22;1020;48.854;8.830;2022-10-16T14:26:24;24.50;99.90
2030;DHT22;1020;48.854;8.830;2022-10-16T14:29:10;24.40;99.90
2030;DHT22;1020;48.854;8.830;2022-10-16T14:31:37;24.20;1.00
2030;DHT22;1020;48.854;8.830;2022-10-16T14:34:23;24.40;99.90
2030;DHT22;1020;48.854;8.830;2022-10-16T14:36:52;24.40;1.00
2030;DHT22;1020;48.854;8.830;2022-10-16T14:39:20;24.40;99.90
2030;DHT22;1020;48.854;8.830;2022-10-16T14:41:50;24.50;1.00
2030;DHT22;1020;48.854;8.830;2022-10-16T14:44:18;24.70;99.90
2030;DHT22;1020;48.854;8.830;2022-10-16T14:46:46;24.70;99.90
2030;DHT22;1020;48.854;8.830;2022-10-16T14:49:16;24.60;99.90
2030;DHT22;1020;48.854;8.830;2022-10-16T14:51:44;24.70;99.90
2030;DHT22;1020;48.854;8.830;2022-10-16T14:54:14;24.70;99.90
2030;DHT22;1020;48.854;8.830;2022-10-16T14:56:46;24.70;99.90
2030;DHT22;1020;48.854;8.830;2022-10-16T14:59:16;25.10;99.90
2030;DHT22;1020;48.854;8.830;2022-10-16T15:01:44;24.90;99.90
2030;DHT22;1020;48.854;8.830;2022-10-16T15:04:12;24.70;99.90
2030;DHT22;1020;48.854;8.830;2022-10-16T15:06:39;24.50;99.90
2030;DHT22;1020;48.854;8.830;2022-10-16T15:09:06;24.20;1.00
2030;DHT22;1020;48.854;8.830;2022-10-16T15:11:35;24.00;2.80
2030;DHT22;1020;48.854;8.830;2022-10-16T15:14:02;23.90;1.00
2030;DHT22;1020;48.854;8.830;2022-10-16T15:16:29;23.90;1.00
2030;DHT22;1020;48.854;8.830;2022-10-16T15:18:56;23.80;26.30
2030;DHT22;1020;48.854;8.830;2022-10-16T15:21:25;23.70;99.90
2030;DHT22;1020;48.854;8.830;2022-10-16T15:23:52;23.60;99.90
2030;DHT22;1020;48.854;8.830;2022-10-16T15:26:19;23.40;1.00
2030;DHT22;1020;48.854;8.830;2022-10-16T15:28:47;23.30;1.00
2030;DHT22;1020;48.854;8.830;2022-10-16T15:31:14;23.30;99.90
2030;DHT22;1020;48.854;8.830;2022-10-16T15:33:41;23.30;97.10
2030;DHT22;1020;48.854;8.830;2022-10-16T15:36:08;23.40;1.00
2030;DHT22;1020;48.854;8.830;2022-10-16T15:38:35;23.00;50.90
2030;DHT22;1020;48.854;8.830;2022-10-16T15:41:01;23.00;99.90
2030;DHT22;1020;48.854;8.830;2022-10-16T15:43:28;23.00;26.70
2030;DHT22;1020;48.854;8.830;2022-10-16T15:46:01;23.10;1.00
2030;DHT22;1020;48.854;8.830;2022-10-16T15:48:29;23.00;1.00
2030;DHT22;1020;48.854;8.830;2022-10-16T15:50:56;23.00;1.00
2030;DHT22;1020;48.854;8.830;2022-10-16T15:53:23;22.90;1.00
2030;DHT22;1020;48.854;8.830;2022-10-16T15:55:49;22.80;99.20
2030;DHT22;1020;48.854;8.830;2022-10-16T15:58:16;22.70;90.50
2030;DHT22;1020;48.854;8.830;2022-10-16T16:00:43;22.60;99.90
2030;DHT22;1020;48.854;8.830;2022-10-16T16:03:11;22.40;99.90
2030;DHT22;1020;48.854;8.830;2022-10-16T16:05:38;22.30;1.00
2030;DHT22;1020;48.854;8.830;2022-10-16T16:08:06;22.20;1.00
2030;DHT22;1020;48.854;8.830;2022-10-16T16:10:32;22.20;1.00
2030;DHT22;1020;48.854;8.830;2022-10-16T16:12:59;22.00;1.00
2030;DHT22;1020;48.854;8.830;2022-10-16T16:15:26;21.80;99.90
2030;DHT22;1020;48.854;8.830;2022-10-16T16:17:53;21.60;55.50
2030;DHT22;1020;48.854;8.830;2022-10-16T16:20:21;21.40;99.90
2030;DHT22;1020;48.854;8.830;2022-10-16T16:22:48;21.20;86.10
2030;DHT22;1020;48.854;8.830;2022-10-16T16:25:15;21.20;99.90
2030;DHT22;1020;48.854;8.830;2022-10-16T16:27:42;21.20;93.60
2030;DHT22;1020;48.854;8.830;2022-10-16T16:30:11;19.90;99.90
2030;DHT22;1020;48.854;8.830;2022-10-16T16:32:38;21.00;1.00
2030;DHT22;1020;48.854;8.830;2022-10-16T16:35:05;21.00;1.00
2030;DHT22;1020;48.854;8.830;2022-10-16T16:37:33;20.90;1.00